createdAt,value
2017-01-17T00:00:53.850Z,87.36
2017-01-17T00:02:02.826Z,87.08
2017-01-17T00:03:11.805Z,87.46
2017-01-17T00:04:20.789Z,86.98
2017-01-17T00:05:29.773Z,87.08
2017-01-17T00:06:38.752Z,87.08
2017-01-17T00:07:48.097Z,86.89
2017-01-17T00:08:57.079Z,86.98
2017-01-17T00:10:06.059Z,86.6
2017-01-17T00:11:15.070Z,86.89
2017-01-17T00:12:24.107Z,86.98
2017-01-17T00:13:33.088Z,86.6
2017-01-17T00:14:42.074Z,86.79
2017-01-17T00:15:51.865Z,86.79
2017-01-17T00:17:01.271Z,86.98
2017-01-17T00:18:10.840Z,86.6
2017-01-17T00:19:19.870Z,87.17
2017-01-17T00:20:29.326Z,86.98
2017-01-17T00:21:38.798Z,87.36
2017-01-17T00:22:47.775Z,87.08
2017-01-17T00:23:56.757Z,87.27
2017-01-17T00:25:07.530Z,87.17
2017-01-17T00:26:16.513Z,87.08
2017-01-17T00:27:26.364Z,87.65
2017-01-17T00:28:36.241Z,87.17
2017-01-17T00:29:47.187Z,87.08
2017-01-17T00:30:58.169Z,87.17
2017-01-17T00:32:08.007Z,86.6
2017-01-17T00:33:20.265Z,86.32
2017-01-17T00:34:33.355Z,86.41
2017-01-17T00:35:44.686Z,86.41
2017-01-17T00:36:56.279Z,86.41
2017-01-17T00:38:08.131Z,86.32
2017-01-17T00:39:18.766Z,86.32
2017-01-17T00:40:31.676Z,86.51
2017-01-17T00:41:42.169Z,86.79
2017-01-17T00:42:53.066Z,86.89
2017-01-17T00:44:04.384Z,86.79
2017-01-17T00:45:14.928Z,86.13
2017-01-17T00:46:26.671Z,86.51
2017-01-17T00:47:37.868Z,86.41
2017-01-17T00:48:46.872Z,86.37
2017-01-17T00:49:55.853Z,86.6
2017-01-17T00:51:04.836Z,86.37
2017-01-17T00:52:13.820Z,86.18
2017-01-17T00:53:22.798Z,85.61
2017-01-17T00:54:31.779Z,86.09
2017-01-17T00:55:40.765Z,86.09
2017-01-17T00:56:49.743Z,86.28
2017-01-17T00:57:58.726Z,86.47
2017-01-17T00:59:07.706Z,86.09
2017-01-17T01:00:16.690Z,85.8
2017-01-17T01:01:25.672Z,84.39
2017-01-17T01:02:34.655Z,84.86
2017-01-17T01:03:43.635Z,85.14
2017-01-17T01:04:52.610Z,84.77
2017-01-17T01:06:01.592Z,84.29
2017-01-17T01:07:10.570Z,84.58
2017-01-17T01:08:19.548Z,84.29
2017-01-17T01:09:28.582Z,84.86
2017-01-17T01:10:37.570Z,85.05
2017-01-17T01:11:46.557Z,85.14
2017-01-17T01:12:55.543Z,85.05
2017-01-17T01:14:04.525Z,85.05
2017-01-17T01:15:13.502Z,84.77
2017-01-17T01:16:22.478Z,84.29
2017-01-17T01:17:31.455Z,85.24
2017-01-17T01:18:40.438Z,84.95
2017-01-17T01:19:49.421Z,84.77
2017-01-17T01:20:58.404Z,85.05
2017-01-17T01:22:07.392Z,84.95
2017-01-17T01:23:16.376Z,85.05
2017-01-17T01:24:25.353Z,85.42
2017-01-17T01:25:34.334Z,85.42
2017-01-17T01:26:43.315Z,85.9
2017-01-17T01:27:52.292Z,85.8
2017-01-17T01:29:01.268Z,85.8
2017-01-17T01:30:10.250Z,85.9
2017-01-17T01:31:19.232Z,85.61
2017-01-17T01:32:28.213Z,85.8
2017-01-17T01:33:37.613Z,85.71
2017-01-17T01:34:46.598Z,85.42
2017-01-17T01:35:55.581Z,86.09
2017-01-17T01:37:04.559Z,86.56
2017-01-17T01:38:13.545Z,86.28
2017-01-17T01:39:22.527Z,86.37
2017-01-17T01:40:31.507Z,86.28
2017-01-17T01:41:40.487Z,86.85
2017-01-17T01:42:49.468Z,87.13
2017-01-17T01:43:58.447Z,86.94
2017-01-17T01:45:07.446Z,86.85
2017-01-17T01:46:16.427Z,87.04
2017-01-17T01:47:25.433Z,86.94
2017-01-17T01:48:34.414Z,85.52
2017-01-17T01:49:43.395Z,85.24
2017-01-17T01:50:52.372Z,85.71
2017-01-17T01:52:01.348Z,86.18
2017-01-17T01:53:10.331Z,86.75
2017-01-17T01:54:19.319Z,86.47
2017-01-17T01:55:28.299Z,86.75
2017-01-17T01:56:37.283Z,87.23
2017-01-17T01:57:46.263Z,86.75
2017-01-17T01:58:55.245Z,86.66
2017-01-17T02:00:04.227Z,86.85
2017-01-17T02:01:13.208Z,86.85
2017-01-17T02:02:22.768Z,86.85
2017-01-17T02:03:31.748Z,86.94
2017-01-17T02:04:40.724Z,87.04
2017-01-17T02:05:49.704Z,86.66
2017-01-17T02:06:58.682Z,86.94
2017-01-17T02:08:07.658Z,86.56
2017-01-17T02:09:16.638Z,86.47
2017-01-17T02:10:25.615Z,86.18
2017-01-17T02:11:34.600Z,86.28
2017-01-17T02:12:43.583Z,86.09
2017-01-17T02:13:52.564Z,86.28
2017-01-17T02:15:01.544Z,85.99
2017-01-17T02:16:10.534Z,86.47
2017-01-17T02:17:19.514Z,86.37
2017-01-17T02:18:28.492Z,86.75
2017-01-17T02:19:37.474Z,87.04
2017-01-17T02:20:46.462Z,86.75
2017-01-17T02:21:55.443Z,87.13
2017-01-17T02:23:04.424Z,87.04
2017-01-17T02:24:13.403Z,87.04
2017-01-17T02:25:22.388Z,86.66
2017-01-17T02:26:31.371Z,86.85
2017-01-17T02:27:40.351Z,87.13
2017-01-17T02:28:49.336Z,86.66
2017-01-17T02:29:58.317Z,86.56
2017-01-17T02:31:07.301Z,86.75
2017-01-17T02:32:16.282Z,86.37
2017-01-17T02:33:25.263Z,86.18
2017-01-17T02:34:34.248Z,85.61
2017-01-17T02:35:43.229Z,85.71
2017-01-17T02:36:52.208Z,86.47
2017-01-17T02:38:01.190Z,86.37
2017-01-17T02:39:10.182Z,86.18
2017-01-17T02:40:19.163Z,86.37
2017-01-17T02:41:28.146Z,85.8
2017-01-17T02:42:37.124Z,85.71
2017-01-17T02:43:46.103Z,85.9
2017-01-17T02:44:55.082Z,85.71
2017-01-17T02:46:04.062Z,85.71
2017-01-17T02:47:13.036Z,85.52
2017-01-17T02:48:22.014Z,85.42
2017-01-17T02:49:30.988Z,85.14
2017-01-17T02:50:39.977Z,85.71
2017-01-17T02:51:48.955Z,85.71
2017-01-17T02:52:58.190Z,86.09
2017-01-17T02:54:07.357Z,86.37
2017-01-17T02:55:16.346Z,86.28
2017-01-17T02:56:25.327Z,85.9
2017-01-17T02:57:34.303Z,85.52
2017-01-17T02:58:43.287Z,86.18
2017-01-17T02:59:52.276Z,85.99
2017-01-17T03:01:01.258Z,85.99
2017-01-17T03:02:10.236Z,85.9
2017-01-17T03:03:19.219Z,85.99
2017-01-17T03:04:28.198Z,85.8
2017-01-17T03:05:37.174Z,85.8
2017-01-17T03:06:46.159Z,85.71
2017-01-17T03:07:55.141Z,84.95
2017-01-17T03:09:04.120Z,84.86
2017-01-17T03:10:13.107Z,85.42
2017-01-17T03:11:22.086Z,84.77
2017-01-17T03:12:31.071Z,84.48
2017-01-17T03:13:40.083Z,83.63
2017-01-17T03:14:49.064Z,82.97
2017-01-17T03:15:58.041Z,82.78
2017-01-17T03:17:07.042Z,83.78
2017-01-17T03:18:16.023Z,84.06
2017-01-17T03:19:25.007Z,83.4
2017-01-17T03:20:33.991Z,83.59
2017-01-17T03:21:42.974Z,83.68
2017-01-17T03:22:51.955Z,84.44
2017-01-17T03:24:00.932Z,84.72
2017-01-17T03:25:09.915Z,84.53
2017-01-17T03:26:18.892Z,84.91
2017-01-17T03:27:27.868Z,84.44
2017-01-17T03:28:36.850Z,84.44
2017-01-17T03:29:45.828Z,84.91
2017-01-17T03:30:54.809Z,84.91
2017-01-17T03:32:03.789Z,85.19
2017-01-17T03:33:12.772Z,84.34
2017-01-17T03:34:21.756Z,84.63
2017-01-17T03:35:30.742Z,85.19
2017-01-17T03:36:39.724Z,85.1
2017-01-17T03:37:48.708Z,85.38
2017-01-17T03:38:57.683Z,85.76
2017-01-17T03:40:06.664Z,85.57
2017-01-17T03:41:15.661Z,85.85
2017-01-17T03:42:24.642Z,86.04
2017-01-17T03:43:33.654Z,86.42
2017-01-17T03:44:42.635Z,86.42
2017-01-17T03:45:51.613Z,86.14
2017-01-17T03:47:00.593Z,86.33
2017-01-17T03:48:09.576Z,85.57
2017-01-17T03:49:18.561Z,85.57
2017-01-17T03:50:27.541Z,85.76
2017-01-17T03:51:36.522Z,84.72
2017-01-17T03:52:45.500Z,84.53
2017-01-17T03:53:54.487Z,84.25
2017-01-17T03:55:03.465Z,84.44
2017-01-17T03:56:12.449Z,84.34
2017-01-17T03:57:21.430Z,84.91
2017-01-17T03:58:30.410Z,85
2017-01-17T03:59:39.394Z,85
2017-01-17T04:00:48.377Z,84.72
2017-01-17T04:01:57.355Z,85.1
2017-01-17T04:03:06.342Z,84.81
2017-01-17T04:04:15.325Z,84.91
2017-01-17T04:05:24.306Z,85.57
2017-01-17T04:06:33.285Z,85.19
2017-01-17T04:07:42.264Z,84.34
2017-01-17T04:08:51.242Z,84.91
2017-01-17T04:10:00.247Z,85.1
2017-01-17T04:11:09.228Z,85
2017-01-17T04:12:18.206Z,84.72
2017-01-17T04:13:27.189Z,85.19
2017-01-17T04:14:36.171Z,84.91
2017-01-17T04:15:45.160Z,84.72
2017-01-17T04:16:54.137Z,84.34
2017-01-17T04:18:03.116Z,84.72
2017-01-17T04:19:12.103Z,84.72
2017-01-17T04:20:21.088Z,85
2017-01-17T04:21:30.073Z,85.66
2017-01-17T04:22:39.050Z,84.72
2017-01-17T04:23:48.029Z,84.91
2017-01-17T04:24:57.015Z,84.72
2017-01-17T04:26:05.995Z,84.53
2017-01-17T04:27:14.972Z,84.72
2017-01-17T04:28:23.981Z,84.25
2017-01-17T04:29:32.971Z,84.63
2017-01-17T04:30:41.958Z,84.25
2017-01-17T04:31:50.953Z,84.91
2017-01-17T04:32:59.933Z,84.91
2017-01-17T04:34:08.909Z,85.19
2017-01-17T04:35:17.885Z,85.66
2017-01-17T04:36:26.858Z,85.38
2017-01-17T04:37:35.841Z,85.47
2017-01-17T04:38:44.826Z,85.47
2017-01-17T04:39:53.805Z,85.47
2017-01-17T04:41:02.784Z,85.76
2017-01-17T04:42:11.765Z,85.38
2017-01-17T04:43:20.740Z,85.1
2017-01-17T04:44:29.720Z,84.72
2017-01-17T04:45:38.696Z,84.53
2017-01-17T04:46:47.670Z,84.06
2017-01-17T04:47:56.645Z,83.87
2017-01-17T04:49:05.624Z,83.87
2017-01-17T04:50:14.601Z,84.25
2017-01-17T04:51:23.577Z,84.25
2017-01-17T04:52:32.553Z,84.81
2017-01-17T04:53:41.536Z,84.44
2017-01-17T04:54:50.524Z,84.72
2017-01-17T04:55:59.514Z,85
2017-01-17T04:57:08.495Z,85
2017-01-17T04:58:17.474Z,85.19
2017-01-17T04:59:26.456Z,84.72
2017-01-17T05:00:35.436Z,84.25
2017-01-17T05:01:44.412Z,84.34
2017-01-17T05:02:53.400Z,85.19
2017-01-17T05:04:02.380Z,84.91
2017-01-17T05:05:11.378Z,85.66
2017-01-17T05:06:20.357Z,85.28
2017-01-17T05:07:29.350Z,85.85
2017-01-17T05:08:38.331Z,85.57
2017-01-17T05:09:47.312Z,86.04
2017-01-17T05:10:56.306Z,85.85
2017-01-17T05:12:05.285Z,85.76
2017-01-17T05:13:14.266Z,85.76
2017-01-17T05:14:23.253Z,85.76
2017-01-17T05:15:32.232Z,85.66
2017-01-17T05:16:41.210Z,85.66
2017-01-17T05:17:50.182Z,85.85
2017-01-17T05:18:59.163Z,85.38
2017-01-17T05:20:08.139Z,85
2017-01-17T05:21:17.121Z,84.34
2017-01-17T05:22:26.098Z,84.16
2017-01-17T05:23:35.080Z,84.53
2017-01-17T05:24:44.061Z,84.25
2017-01-17T05:25:53.040Z,84.16
2017-01-17T05:27:02.017Z,83.4
2017-01-17T05:28:11.000Z,83.49
2017-01-17T05:29:19.980Z,84.01
2017-01-17T05:30:28.964Z,83.54
2017-01-17T05:31:37.957Z,84.11
2017-01-17T05:32:46.939Z,84.49
2017-01-17T05:33:55.912Z,83.73
2017-01-17T05:35:04.894Z,83.54
2017-01-17T05:36:13.868Z,84.01
2017-01-17T05:37:22.846Z,84.39
2017-01-17T05:38:31.833Z,84.58
2017-01-17T05:39:40.823Z,84.86
2017-01-17T05:40:49.806Z,84.96
2017-01-17T05:41:58.797Z,84.77
2017-01-17T05:43:07.785Z,85.15
2017-01-17T05:44:16.776Z,84.96
2017-01-17T05:45:25.754Z,85.81
2017-01-17T05:46:34.728Z,85.53
2017-01-17T05:47:43.714Z,85.66
2017-01-17T05:48:52.691Z,86
2017-01-17T05:50:01.665Z,85.76
2017-01-17T05:51:10.640Z,85.1
2017-01-17T05:52:19.615Z,85.28
2017-01-17T05:53:28.597Z,85.85
2017-01-17T05:54:37.601Z,85.47
2017-01-17T05:55:46.615Z,85.47
2017-01-17T05:56:55.590Z,85.47
2017-01-17T05:58:04.565Z,85.47
2017-01-17T05:59:13.546Z,85.38
2017-01-17T06:00:22.525Z,85.47
2017-01-17T06:01:31.507Z,85.57
2017-01-17T06:02:40.482Z,85.85
2017-01-17T06:03:49.469Z,85.76
2017-01-17T06:04:58.459Z,85.47
2017-01-17T06:06:07.443Z,85.1
2017-01-17T06:07:16.422Z,85.28
2017-01-17T06:08:25.400Z,84.53
2017-01-17T06:09:34.385Z,85.19
2017-01-17T06:10:43.370Z,85.19
2017-01-17T06:11:52.351Z,85.19
2017-01-17T06:13:01.337Z,85.1
2017-01-17T06:14:10.332Z,84.91
2017-01-17T06:15:19.308Z,84.25
2017-01-17T06:16:28.281Z,84.34
2017-01-17T06:17:37.288Z,84.06
2017-01-17T06:18:46.270Z,84.34
2017-01-17T06:19:55.251Z,84.63
2017-01-17T06:21:04.232Z,83.78
2017-01-17T06:22:13.218Z,83.59
2017-01-17T06:23:22.205Z,83.68
2017-01-17T06:24:31.186Z,84.25
2017-01-17T06:25:40.168Z,84.44
2017-01-17T06:26:49.143Z,83.87
2017-01-17T06:27:58.131Z,84.53
2017-01-17T06:29:07.526Z,84.72
2017-01-17T06:30:16.505Z,84.63
2017-01-17T06:31:25.543Z,84.53
2017-01-17T06:32:34.528Z,84.53
2017-01-17T06:33:43.504Z,84.72
2017-01-17T06:34:52.487Z,84.53
2017-01-17T06:36:01.477Z,85
2017-01-17T06:37:10.461Z,84.91
2017-01-17T06:38:19.439Z,84.91
2017-01-17T06:39:28.444Z,85.66
2017-01-17T06:40:37.425Z,85.57
2017-01-17T06:41:46.409Z,85.1
2017-01-17T06:42:55.389Z,84.72
2017-01-17T06:44:04.367Z,85.1
2017-01-17T06:45:13.347Z,84.72
2017-01-17T06:46:22.323Z,84.72
2017-01-17T06:47:31.300Z,84.25
2017-01-17T06:48:40.282Z,84.53
2017-01-17T06:49:49.264Z,83.78
2017-01-17T06:50:58.247Z,84.63
2017-01-17T06:52:07.244Z,84.25
2017-01-17T06:53:16.219Z,84.72
2017-01-17T06:54:25.199Z,84.53
2017-01-17T06:55:34.175Z,84.25
2017-01-17T06:56:43.155Z,84.72
2017-01-17T06:57:52.143Z,84.06
2017-01-17T06:59:01.142Z,84.44
2017-01-17T07:00:10.139Z,84.81
2017-01-17T07:01:19.114Z,84.53
2017-01-17T07:02:28.094Z,84.72
2017-01-17T07:03:37.074Z,85.19
2017-01-17T07:04:46.055Z,84.81
2017-01-17T07:05:55.040Z,84.91
2017-01-17T07:07:04.021Z,84.63
2017-01-17T07:08:13.022Z,84.72
2017-01-17T07:09:22.005Z,84.25
2017-01-17T07:10:30.986Z,84.16
2017-01-17T07:11:39.969Z,84.34
2017-01-17T07:12:48.953Z,84.53
2017-01-17T07:13:57.935Z,85.19
2017-01-17T07:15:06.919Z,84.91
2017-01-17T07:16:15.895Z,84.63
2017-01-17T07:17:24.877Z,84.63
2017-01-17T07:18:33.856Z,84.53
2017-01-17T07:19:42.837Z,84.63
2017-01-17T07:20:51.821Z,84.34
2017-01-17T07:22:00.805Z,84.72
2017-01-17T07:23:09.782Z,84.25
2017-01-17T07:24:18.764Z,83.87
2017-01-17T07:25:27.761Z,84.06
2017-01-17T07:26:36.741Z,83.68
2017-01-17T07:27:45.721Z,84.16
2017-01-17T07:28:54.701Z,84.44
2017-01-17T07:30:03.690Z,84.44
2017-01-17T07:31:12.791Z,84.25
2017-01-17T07:32:22.021Z,83.68
2017-01-17T07:33:31.000Z,83.02
2017-01-17T07:34:39.981Z,83.3
2017-01-17T07:35:48.959Z,83.02
2017-01-17T07:36:57.963Z,82.73
2017-01-17T07:38:06.946Z,82.64
2017-01-17T07:39:15.926Z,82.64
2017-01-17T07:40:24.903Z,83.21
2017-01-17T07:41:34.617Z,83.3
2017-01-17T07:42:43.596Z,83.11
2017-01-17T07:43:52.577Z,83.21
2017-01-17T07:45:01.563Z,83.21
2017-01-17T07:46:10.682Z,82.73
2017-01-17T07:47:19.665Z,82.54
2017-01-17T07:48:28.685Z,82.83
2017-01-17T07:49:37.669Z,81.88
2017-01-17T07:50:46.656Z,81.79
2017-01-17T07:51:55.638Z,81.6
2017-01-17T07:53:04.625Z,81.98
2017-01-17T07:54:13.608Z,82.17
2017-01-17T07:55:22.585Z,82.64
2017-01-17T07:56:31.580Z,82.45
2017-01-17T07:57:40.562Z,81.98
2017-01-17T07:58:49.547Z,82.07
2017-01-17T07:59:58.558Z,82.64
2017-01-17T08:01:08.720Z,82.35
2017-01-17T08:02:20.452Z,82.26
2017-01-17T08:03:29.441Z,82.26
2017-01-17T08:04:39.613Z,82.83
2017-01-17T08:05:49.040Z,83.02
2017-01-17T08:06:58.069Z,83.02
2017-01-17T08:08:07.492Z,82.73
2017-01-17T08:09:16.472Z,82.64
2017-01-17T08:10:25.457Z,81.79
2017-01-17T08:11:35.353Z,81.51
2017-01-17T08:12:44.613Z,81.22
2017-01-17T08:13:54.494Z,81.88
2017-01-17T08:15:04.456Z,82.17
2017-01-17T08:16:14.488Z,82.17
2017-01-17T08:17:24.340Z,82.26
2017-01-17T08:18:34.739Z,82.26
2017-01-17T08:19:44.578Z,82.45
2017-01-17T08:20:55.379Z,82.26
2017-01-17T08:22:05.114Z,82.17
2017-01-17T08:23:14.523Z,82.07
2017-01-17T08:24:24.385Z,82.35
2017-01-17T08:25:33.363Z,82.26
2017-01-17T08:26:42.345Z,82.07
2017-01-17T08:27:51.522Z,81.98
2017-01-17T08:29:00.792Z,81.7
2017-01-17T08:30:10.158Z,81.79
2017-01-17T08:31:20.294Z,81.79
2017-01-17T08:32:31.679Z,81.88
2017-01-17T08:33:40.663Z,82.17
2017-01-17T08:34:49.819Z,81.41
2017-01-17T08:35:59.352Z,82.35
2017-01-17T08:37:08.642Z,82.07
2017-01-17T08:38:18.824Z,80.94
2017-01-17T08:39:29.070Z,81.22
2017-01-17T08:40:39.436Z,80.94
2017-01-17T08:41:49.901Z,81.22
2017-01-17T08:42:59.254Z,80.84
2017-01-17T08:44:08.853Z,80.84
2017-01-17T08:45:17.836Z,81.22
2017-01-17T08:46:27.640Z,81.07
2017-01-17T08:47:36.900Z,80.94
2017-01-17T08:48:45.877Z,81.45
2017-01-17T08:49:56.351Z,81.83
2017-01-17T08:51:05.332Z,81.6
2017-01-17T08:52:14.308Z,81.93
2017-01-17T08:53:23.629Z,81.64
2017-01-17T08:54:33.253Z,80.98
2017-01-17T08:55:42.244Z,80.69
2017-01-17T08:56:51.225Z,81.17
2017-01-17T08:58:00.207Z,79.33
2017-01-17T08:59:09.187Z,78.9
2017-01-17T09:00:18.195Z,78.58
2017-01-17T09:01:27.174Z,79.24
2017-01-17T09:02:36.182Z,78.86
2017-01-17T09:03:45.164Z,79.24
2017-01-17T09:04:54.141Z,80.08
2017-01-17T09:06:03.150Z,80.56
2017-01-17T09:07:12.142Z,80.94
2017-01-17T09:08:21.124Z,81.32
2017-01-17T09:09:30.098Z,80.94
2017-01-17T09:10:39.078Z,81.17
2017-01-17T09:11:48.059Z,80.84
2017-01-17T09:12:57.038Z,81.55
2017-01-17T09:14:06.022Z,80.79
2017-01-17T09:15:15.018Z,80.79
2017-01-17T09:16:24.000Z,81.07
2017-01-17T09:17:32.981Z,81.17
2017-01-17T09:18:41.961Z,80.98
2017-01-17T09:19:50.945Z,81.26
2017-01-17T09:20:59.926Z,81.07
2017-01-17T09:22:08.913Z,81.55
2017-01-17T09:23:18.015Z,81.83
2017-01-17T09:24:26.996Z,81.64
2017-01-17T09:25:35.977Z,80.98
2017-01-17T09:26:44.959Z,81.74
2017-01-17T09:27:53.938Z,81.74
2017-01-17T09:29:02.919Z,81.64
2017-01-17T09:30:11.906Z,82.21
2017-01-17T09:31:20.883Z,81.83
2017-01-17T09:32:29.876Z,82.21
2017-01-17T09:33:38.855Z,82.12
2017-01-17T09:34:47.973Z,82.12
2017-01-17T09:35:56.960Z,82.12
2017-01-17T09:37:05.945Z,82.12
2017-01-17T09:38:15.280Z,82.12
2017-01-17T09:39:24.264Z,82.21
2017-01-17T09:40:33.265Z,82.21
2017-01-17T09:41:42.501Z,82.02
2017-01-17T09:42:51.500Z,82.02
2017-01-17T09:44:00.884Z,82.31
2017-01-17T09:45:09.870Z,82.25
2017-01-17T09:46:18.859Z,82.25
2017-01-17T09:47:27.847Z,82.06
2017-01-17T09:48:36.831Z,81.12
2017-01-17T09:49:45.819Z,80.93
2017-01-17T09:50:54.835Z,80.93
2017-01-17T09:52:03.859Z,81.02
2017-01-17T09:53:12.851Z,81.12
2017-01-17T09:54:21.834Z,80.93
2017-01-17T09:55:30.821Z,80.93
2017-01-17T09:56:39.800Z,81.3
2017-01-17T09:57:48.778Z,80.74
2017-01-17T09:58:57.757Z,79.88
2017-01-17T10:00:06.771Z,79.88
2017-01-17T10:01:15.752Z,79.88
2017-01-17T10:02:24.740Z,79.22
2017-01-17T10:03:33.865Z,79.88
2017-01-17T10:04:42.848Z,80.36
2017-01-17T10:05:51.829Z,79.6
2017-01-17T10:07:00.806Z,79.69
2017-01-17T10:08:09.784Z,80.07
2017-01-17T10:09:18.895Z,80.26
2017-01-17T10:10:29.000Z,80.64
2017-01-17T10:11:37.980Z,80.26
2017-01-17T10:12:46.959Z,80.64
2017-01-17T10:13:55.944Z,81.02
2017-01-17T10:15:05.063Z,80.64
2017-01-17T10:16:14.043Z,80.64
2017-01-17T10:17:23.024Z,80.64
2017-01-17T10:18:32.014Z,80.55
2017-01-17T10:19:41.154Z,80.36
2017-01-17T10:20:50.134Z,80.36
2017-01-17T10:21:59.118Z,80.55
2017-01-17T10:23:08.102Z,79.98
2017-01-17T10:24:17.332Z,80.55
2017-01-17T10:25:26.940Z,79.5
2017-01-17T10:26:36.806Z,79.5
2017-01-17T10:27:46.336Z,79.22
2017-01-17T10:28:55.911Z,79.88
2017-01-17T10:30:05.505Z,79.69
2017-01-17T10:31:15.227Z,80.45
2017-01-17T10:32:26.528Z,80.45
2017-01-17T10:33:38.011Z,79.83
2017-01-17T10:34:47.757Z,79.6
2017-01-17T10:35:57.728Z,79.5
2017-01-17T10:37:06.707Z,79.6
2017-01-17T10:38:16.417Z,79.55
2017-01-17T10:39:25.396Z,79.64
2017-01-17T10:40:34.969Z,79.55
2017-01-17T10:41:44.699Z,78.79
2017-01-17T10:42:55.593Z,77.75
2017-01-17T10:44:06.332Z,78.13
2017-01-17T10:45:16.021Z,78.85
2017-01-17T10:46:25.704Z,78.88
2017-01-17T10:47:35.830Z,78.88
2017-01-17T10:48:44.843Z,79.55
2017-01-17T10:49:53.821Z,78.88
2017-01-17T10:51:03.317Z,78.59
2017-01-17T10:52:12.304Z,78.5
2017-01-17T10:53:21.287Z,78.88
2017-01-17T10:54:30.268Z,79.07
2017-01-17T10:55:39.250Z,79.55
2017-01-17T10:56:48.240Z,79.55
2017-01-17T10:57:57.226Z,78.59
2017-01-17T10:59:06.204Z,78.31
2017-01-17T11:00:15.186Z,78.5
2017-01-17T11:01:24.183Z,78.5
2017-01-17T11:02:33.195Z,78.79
2017-01-17T11:03:42.199Z,78.88
2017-01-17T11:04:51.191Z,78.41
2017-01-17T11:06:00.171Z,78.5
2017-01-17T11:07:09.158Z,78.31
2017-01-17T11:08:18.139Z,78.88
2017-01-17T11:09:27.129Z,78.22
2017-01-17T11:10:36.109Z,77.56
2017-01-17T11:11:45.088Z,77.46
2017-01-17T11:12:54.074Z,77.75
2017-01-17T11:14:03.060Z,77.56
2017-01-17T11:15:12.065Z,77.65
2017-01-17T11:16:21.049Z,77.75
2017-01-17T11:17:30.030Z,77.56
2017-01-17T11:18:39.011Z,78.13
2017-01-17T11:19:48.224Z,78.13
2017-01-17T11:20:57.409Z,77.84
2017-01-17T11:22:06.390Z,78.13
2017-01-17T11:23:15.379Z,78.41
2017-01-17T11:24:24.364Z,77.75
2017-01-17T11:25:33.351Z,76.51
2017-01-17T11:26:42.334Z,76.61
2017-01-17T11:27:51.924Z,76.42
2017-01-17T11:29:00.902Z,77.46
2017-01-17T11:30:09.889Z,77.18
2017-01-17T11:31:18.871Z,78.13
2017-01-17T11:32:27.854Z,78.41
2017-01-17T11:33:37.018Z,78.22
2017-01-17T11:34:46.003Z,78.31
2017-01-17T11:35:55.135Z,77.4
2017-01-17T11:37:04.318Z,77.22
2017-01-17T11:38:13.414Z,77.31
2017-01-17T11:39:22.399Z,77.4
2017-01-17T11:40:31.378Z,77.78
2017-01-17T11:41:40.363Z,77.59
2017-01-17T11:42:49.346Z,77.4
2017-01-17T11:43:58.329Z,78.26
2017-01-17T11:45:08.047Z,78.35
2017-01-17T11:46:17.150Z,77.5
2017-01-17T11:47:26.132Z,77.4
2017-01-17T11:48:35.318Z,77.78
2017-01-17T11:49:44.526Z,76.65
2017-01-17T11:50:54.140Z,75.89
2017-01-17T11:52:03.120Z,74.37
2017-01-17T11:53:12.102Z,74.09
2017-01-17T11:54:21.107Z,75.13
2017-01-17T11:55:30.087Z,75.79
2017-01-17T11:56:39.096Z,75.7
2017-01-17T11:57:48.075Z,75.98
2017-01-17T11:58:57.058Z,76.17
2017-01-17T12:00:06.041Z,76.36
2017-01-17T12:01:15.027Z,76.55
2017-01-17T12:02:24.015Z,76.65
2017-01-17T12:03:33.000Z,76.55
2017-01-17T12:04:41.981Z,77.03
2017-01-17T12:05:50.964Z,76.93
2017-01-17T12:06:59.946Z,76.17
2017-01-17T12:08:09.608Z,76.36
2017-01-17T12:09:18.593Z,75.89
2017-01-17T12:10:27.577Z,75.79
2017-01-17T12:11:36.748Z,75.42
2017-01-17T12:12:45.755Z,75.51
2017-01-17T12:13:54.877Z,75.32
2017-01-17T12:15:03.862Z,74.28
2017-01-17T12:16:12.844Z,73.24
2017-01-17T12:17:21.825Z,73.61
2017-01-17T12:18:30.814Z,73.52
2017-01-17T12:19:39.794Z,74.47
2017-01-17T12:20:48.778Z,73.99
2017-01-17T12:21:58.063Z,73.99
2017-01-17T12:23:07.340Z,74.37
2017-01-17T12:24:16.323Z,74.28
2017-01-17T12:25:25.306Z,74.18
2017-01-17T12:26:34.650Z,73.37
2017-01-17T12:27:44.253Z,73.33
2017-01-17T12:28:53.484Z,72.33
2017-01-17T12:30:03.395Z,71.91
2017-01-17T12:31:14.117Z,71.25
2017-01-17T12:32:24.669Z,70.87
2017-01-17T12:33:35.277Z,69.82
2017-01-17T12:34:44.258Z,68.79
2017-01-17T12:35:53.260Z,69.17
2017-01-17T12:37:05.793Z,69.73
2017-01-17T12:38:14.778Z,70.11
2017-01-17T12:39:23.760Z,70.3
2017-01-17T12:40:32.744Z,70.11
2017-01-17T12:41:41.723Z,69.26
2017-01-17T12:42:50.705Z,68.88
2017-01-17T12:43:59.686Z,69.64
2017-01-17T12:45:08.670Z,68.88
2017-01-17T12:46:17.650Z,68.59
2017-01-17T12:47:27.307Z,68.88
2017-01-17T12:48:36.356Z,68.5
2017-01-17T12:49:46.276Z,68.79
2017-01-17T12:50:55.650Z,67.93
2017-01-17T12:52:05.120Z,67.08
2017-01-17T12:53:14.104Z,67.83
2017-01-17T12:54:23.341Z,68.5
2017-01-17T12:55:33.215Z,68.88
2017-01-17T12:56:42.198Z,68.59
2017-01-17T12:57:51.628Z,68.44
2017-01-17T12:59:02.447Z,68.91
2017-01-17T13:00:11.709Z,69.01
2017-01-17T13:01:20.964Z,68.59
2017-01-17T13:02:30.751Z,66.93
2017-01-17T13:03:40.936Z,66.64
2017-01-17T13:04:50.523Z,65.28
2017-01-17T13:06:00.347Z,64.42
2017-01-17T13:07:09.893Z,64.52
2017-01-17T13:08:19.260Z,65.19
2017-01-17T13:09:28.774Z,66.13
2017-01-17T13:10:37.915Z,66.99
2017-01-17T13:11:47.135Z,66.7
2017-01-17T13:12:56.418Z,66.41
2017-01-17T13:14:05.744Z,66.35
2017-01-17T13:15:15.085Z,66.6
2017-01-17T13:16:24.594Z,67.18
2017-01-17T13:17:34.052Z,67.87
2017-01-17T13:18:43.396Z,67.87
2017-01-17T13:19:52.513Z,67.96
2017-01-17T13:21:01.603Z,67.11
2017-01-17T13:22:10.664Z,66.35
2017-01-17T13:23:19.742Z,66.35
2017-01-17T13:24:28.882Z,66.64
2017-01-17T13:25:38.050Z,67.02
2017-01-17T13:26:47.126Z,67.96
2017-01-17T13:27:56.223Z,67.96
2017-01-17T13:29:05.294Z,68.25
2017-01-17T13:30:14.342Z,68.35
2017-01-17T13:31:23.514Z,68.25
2017-01-17T13:32:32.569Z,67.77
2017-01-17T13:33:41.695Z,68.06
2017-01-17T13:34:50.792Z,66.74
2017-01-17T13:35:59.835Z,65.88
2017-01-17T13:37:08.909Z,66.45
2017-01-17T13:38:17.946Z,66.74
2017-01-17T13:39:27.013Z,66.64
2017-01-17T13:40:36.153Z,66.93
2017-01-17T13:41:45.204Z,67.3
2017-01-17T13:42:54.389Z,66.93
2017-01-17T13:44:03.440Z,67.02
2017-01-17T13:45:12.580Z,66.83
2017-01-17T13:46:21.639Z,66.26
2017-01-17T13:47:30.741Z,65.5
2017-01-17T13:48:39.893Z,64.84
2017-01-17T13:49:48.961Z,64.84
2017-01-17T13:50:58.013Z,65.03
2017-01-17T13:52:07.236Z,64.42
2017-01-17T13:53:16.373Z,62.75
2017-01-17T13:54:25.437Z,63.48
2017-01-17T13:55:34.565Z,64.04
2017-01-17T13:56:43.602Z,64.52
2017-01-17T13:57:52.674Z,64.23
2017-01-17T13:59:01.762Z,64.42
2017-01-17T14:00:10.966Z,65.19
2017-01-17T14:01:20.262Z,64.9
2017-01-17T14:02:29.650Z,65
2017-01-17T14:03:38.965Z,64.9
2017-01-17T14:04:48.349Z,64.52
2017-01-17T14:05:57.903Z,64.33
2017-01-17T14:07:07.166Z,63.76
2017-01-17T14:08:17.528Z,63.85
2017-01-17T14:09:26.909Z,63.95
2017-01-17T14:10:36.398Z,64.04
2017-01-17T14:11:45.814Z,63.76
2017-01-17T14:12:55.059Z,63.67
2017-01-17T14:14:04.403Z,63.76
2017-01-17T14:15:13.789Z,64.23
2017-01-17T14:16:23.324Z,63.67
2017-01-17T14:17:33.075Z,63.48
2017-01-17T14:18:42.655Z,63.76
2017-01-17T14:19:52.086Z,63.48
2017-01-17T14:21:02.754Z,63.39
2017-01-17T14:22:12.326Z,63.48
2017-01-17T14:23:22.429Z,63.57
2017-01-17T14:24:32.079Z,63.57
2017-01-17T14:25:41.544Z,63.2
2017-01-17T14:26:51.145Z,63.76
2017-01-17T14:28:00.810Z,63.85
2017-01-17T14:29:10.463Z,63.29
2017-01-17T14:30:19.850Z,63.01
2017-01-17T14:31:29.274Z,63.29
2017-01-17T14:32:38.741Z,63.2
2017-01-17T14:33:48.427Z,63.1
2017-01-17T14:34:57.924Z,63.85
2017-01-17T14:36:07.748Z,63.76
2017-01-17T14:37:17.249Z,63.39
2017-01-17T14:38:26.843Z,63.39
2017-01-17T14:39:36.581Z,63.01
2017-01-17T14:40:46.225Z,62.34
2017-01-17T14:41:55.680Z,62.53
2017-01-17T14:43:05.278Z,62.43
2017-01-17T14:44:14.518Z,63.2
2017-01-17T14:45:23.971Z,63.01
2017-01-17T14:46:33.746Z,62.82
2017-01-17T14:47:43.270Z,63.39
2017-01-17T14:48:53.059Z,63.01
2017-01-17T14:50:02.481Z,62.91
2017-01-17T14:51:12.046Z,63.29
2017-01-17T14:52:21.484Z,63.29
2017-01-17T14:53:30.970Z,63.48
2017-01-17T14:54:40.168Z,63.67